Time;durP1;ratioP1;P1;durP2;ratioP2;P2;SDS_P1;SDS_P2;PMS_P1;PMS_P2;Temp;Humidity;BMP_temperature;BMP_pressure;BME280_temperature;BME280_humidity;BME280_pressure;Samples;Min_cycle;Max_cycle;Signal;HPM_P1;HPM_P2
2022/11/01 00:02:09;;;;;;;28.60;23.08;;;12.80;99.90;;;-141.84;90.96;18688.06;5011666;28;20230;-60
2022/11/01 00:04:37;;;;;;;29.17;23.90;;;12.70;99.90;;;-141.84;91.33;18669.78;5011653;28;20209;-60
2022/11/01 00:07:05;;;;;;;30.35;23.45;;;12.70;99.90;;;-141.84;91.43;18635.25;5011932;28;20207;-60
2022/11/01 00:09:33;;;;;;;28.10;23.33;;;12.60;99.90;;;-141.84;91.77;18671.81;5011091;28;20265;-60
2022/11/01 00:12:03;;;;;;;29.52;24.95;;;12.60;99.90;;;-141.84;92.24;18645.41;5011322;28;20234;-60
2022/11/01 00:14:31;;;;;;;31.65;24.48;;;12.60;99.90;;;-141.84;92.34;18602.75;4999814;28;20742;-60
2022/11/01 00:16:59;;;;;;;31.02;25.08;;;12.50;99.90;;;-141.84;92.69;18612.91;4991907;28;20254;-60
2022/11/01 00:19:27;;;;;;;29.15;25.33;;;12.50;99.90;;;-141.84;92.90;18659.63;4991464;28;20203;-60
2022/11/01 00:21:55;;;;;;;29.85;24.67;;;12.50;99.90;;;-141.84;93.08;18586.50;4991974;28;20278;-60
2022/11/01 00:24:23;;;;;;;30.63;24.95;;;12.50;99.90;;;-141.84;93.27;18637.28;4991513;28;20239;-59
2022/11/01 00:26:51;;;;;;;31.75;25.45;;;12.40;99.90;;;-141.84;93.26;18604.78;4991659;28;20238;-59
2022/11/01 00:29:21;;;;;;;32.97;25.50;;;12.40;99.90;;;-141.84;93.50;18562.09;4990889;28;20230;-60
2022/11/01 00:31:49;;;;;;;31.38;24.73;;;12.30;99.90;;;-141.84;93.78;18580.41;5002268;28;20731;-60
2022/11/01 00:34:18;;;;;;;32.30;25.43;;;12.30;99.90;;;-141.84;94.03;18560.06;5011924;28;20210;-60
2022/11/01 00:36:46;;;;;;;31.43;25.60;;;12.20;99.90;;;-141.84;94.15;18600.72;5011174;28;20265;-61
2022/11/01 00:39:15;;;;;;;31.90;25.03;;;12.20;99.90;;;-141.84;94.26;18592.59;5026577;28;20217;-59
2022/11/01 00:41:43;;;;;;;31.35;25.77;;;12.20;99.90;;;-141.84;94.27;18553.97;5030425;28;20234;-60
2022/11/01 00:44:11;;;;;;;33.73;26.43;;;12.20;99.90;;;-141.84;94.45;18568.19;5030420;28;20609;-59
2022/11/01 00:46:42;;;;;;;34.00;25.77;;;12.20;99.90;;;-141.84;94.40;18543.81;5030714;28;20784;-60
2022/11/01 00:49:10;;;;;;;29.98;24.90;;;12.20;99.90;;;-141.84;94.42;18543.81;5030973;28;20251;-60
2022/11/01 00:51:38;;;;;;;32.60;27.35;;;12.20;99.90;;;-141.84;94.56;18558.03;5030469;28;20423;-60
2022/11/01 00:54:06;;;;;;;30.17;26.07;;;12.20;99.90;;;-141.84;94.81;18525.53;5030473;28;20669;-60
2022/11/01 00:56:34;;;;;;;29.67;25.15;;;12.20;99.90;;;-141.84;94.69;18527.56;5030838;28;20241;-60
2022/11/01 00:59:03;;;;;;;31.63;26.05;;;12.10;99.90;;;-141.84;94.88;18503.19;5030327;28;20229;-60
2022/11/01 01:01:31;;;;;;;30.58;25.20;;;12.10;99.90;;;-141.84;95.00;18537.72;5030853;28;20201;-60
2022/11/01 01:04:01;;;;;;;32.53;26.23;;;12.10;99.90;;;-141.84;95.04;18523.50;5031114;28;20300;-60
2022/11/01 01:06:29;;;;;;;30.80;25.47;;;12.10;99.90;;;-141.84;94.94;18513.34;5030554;28;20237;-60
2022/11/01 01:08:59;;;;;;;32.10;26.77;;;12.10;99.90;;;-141.84;94.06;18527.56;5030449;28;20241;-60
2022/11/01 01:11:28;;;;;;;34.83;25.67;;;12.20;99.90;;;-141.84;93.93;18523.50;5013424;28;20270;-61
2022/11/01 01:13:56;;;;;;;32.03;25.25;;;12.20;99.90;;;-141.84;93.97;18509.28;5010597;28;20250;-60
2022/11/01 01:16:24;;;;;;;27.27;24.10;;;12.10;99.90;;;-141.84;94.06;18503.19;5010855;28;20206;-61
2022/11/01 01:18:52;;;;;;;31.80;24.70;;;12.00;99.90;;;-141.84;94.19;18493.03;5011184;28;20264;-61
2022/11/01 01:21:22;;;;;;;35.33;25.43;;;12.00;99.90;;;-141.84;94.35;18517.41;5010707;28;20226;-59
2022/11/01 01:23:50;;;;;;;29.63;24.80;;;11.90;99.90;;;-141.84;94.40;18486.94;5010460;28;20729;-59
2022/11/01 01:26:18;;;;;;;36.05;26.08;;;11.80;99.90;;;-141.84;94.75;18474.75;5010902;28;20226;-60
2022/11/01 01:28:46;;;;;;;32.73;26.63;;;11.70;99.90;;;-141.84;94.53;18468.66;5010577;28;20231;-58
2022/11/01 01:31:14;;;;;;;30.47;26.10;;;11.90;99.90;;;-141.84;94.58;18495.06;5011180;28;20694;-58
2022/11/01 01:33:42;;;;;;;32.77;26.13;;;11.80;99.90;;;-141.84;94.71;18468.66;5010896;28;20226;-60
2022/11/01 01:36:11;;;;;;;30.47;25.50;;;11.80;99.90;;;-141.84;95.01;18501.16;5014819;28;20506;-60
2022/11/01 01:38:40;;;;;;;32.33;25.75;;;11.80;99.90;;;-141.84;95.23;18495.06;5010478;28;20222;-60
2022/11/01 01:43:53;;;;;;;31.48;25.92;;;11.70;99.90;;;-141.84;95.69;18434.13;5033743;28;20221;-61
2022/11/01 01:46:22;;;;;;;35.97;27.70;;;11.70;99.90;;;-141.84;96.00;18428.03;5034072;28;20248;-61
2022/11/01 01:48:57;;;;;;;34.58;27.38;;;11.70;99.90;;;-141.84;96.28;18432.09;5034564;28;20228;-60
2022/11/01 01:51:29;;;;;;;34.63;27.10;;;11.70;99.90;;;-141.84;96.32;18417.84;5033651;28;20700;-60
2022/11/01 01:53:59;;;;;;;38.45;29.10;;;11.70;99.90;;;-141.84;96.36;18401.59;5033543;28;20238;-62
2022/11/01 01:56:33;;;;;;;34.38;28.42;;;11.70;99.90;;;-141.84;96.35;18419.88;5033656;28;20226;-60
2022/11/01 01:59:06;;;;;;;38.53;30.53;;;11.70;99.90;;;-141.84;96.68;18387.38;5033580;28;20287;-60
2022/11/01 02:01:37;;;;;;;35.70;29.23;;;11.70;99.90;;;-141.84;96.77;18387.38;5033694;28;20179;-59
2022/11/01 02:04:15;;;;;;;38.25;30.50;;;11.70;99.90;;;-141.84;96.88;18383.31;5034197;28;20240;-60
2022/11/01 02:06:43;;;;;;;41.83;31.23;;;11.70;99.90;;;-141.84;97.14;18369.09;5033215;28;20229;-60
2022/11/01 02:09:16;;;;;;;38.75;30.83;;;11.80;99.90;;;-141.84;97.16;18393.47;5033556;28;20644;-60
2022/11/01 02:11:44;;;;;;;39.13;29.83;;;11.70;99.90;;;-141.84;97.08;18356.91;5033282;28;20609;-60
2022/11/01 02:14:13;;;;;;;38.27;30.00;;;11.80;99.90;;;-141.84;97.35;18336.59;5033463;28;20237;-61
2022/11/01 02:16:54;;;;;;;43.20;32.63;;;11.70;99.90;;;-141.84;97.33;18330.50;5033600;28;20648;-62
2022/11/01 02:20:25;;;;;;;42.85;35.47;;;11.70;99.90;;;-141.84;97.52;18336.59;5033533;28;20186;-60
2022/11/01 02:23:46;;;;;;;45.23;32.63;;;11.70;99.90;;;-141.84;97.36;18308.16;5033258;28;20279;-60
2022/11/01 02:26:53;;;;;;;38.87;31.47;;;11.80;99.90;;;-141.84;97.26;18389.41;4971682;28;20224;-60
2022/11/01 02:29:50;;;;;;;41.72;33.17;;;11.80;99.90;;;-141.84;97.15;18334.56;4994306;28;20233;-60
2022/11/01 02:32:28;;;;;;;39.40;31.83;;;11.80;99.90;;;-141.84;96.42;18371.13;5033122;28;20218;-59
2022/11/01 02:35:04;;;;;;;41.63;31.23;;;11.90;99.90;;;-141.84;96.00;18348.78;5033142;28;20226;-59
2022/11/01 02:37:42;;;;;;;39.20;29.30;;;11.90;99.90;;;-141.84;96.15;18326.44;5021718;28;20202;-61
2022/11/01 02:40:20;;;;;;;35.80;29.27;;;11.90;99.90;;;-141.84;96.24;18328.47;5020190;28;20222;-61
2022/11/01 02:42:56;;;;;;;35.73;28.03;;;11.80;99.90;;;-141.84;96.37;18318.31;5032990;28;20210;-60
2022/11/01 02:45:34;;;;;;;34.85;28.73;;;11.80;99.90;;;-141.84;96.50;18352.84;5032504;28;20246;-59
2022/11/01 02:48:06;;;;;;;31.83;27.17;;;11.80;99.90;;;-141.84;96.59;18318.31;5032663;28;20371;-60
2022/11/01 02:50:41;;;;;;;34.97;27.27;;;11.80;99.90;;;-141.84;96.55;18334.56;5031913;28;20225;-59
2022/11/01 02:53:10;;;;;;;33.38;27.50;;;11.80;99.90;;;-141.84;96.24;18326.44;5032839;28;20276;-60
2022/11/01 02:55:39;;;;;;;34.63;26.10;;;11.80;99.90;;;-141.84;95.44;18322.38;5032986;28;20202;-61
2022/11/01 02:58:16;;;;;;;32.15;25.52;;;11.80;99.90;;;-141.84;95.19;18342.69;5033197;28;20206;-61
2022/11/01 03:00:44;;;;;;;30.17;24.00;;;11.80;99.90;;;-141.84;95.18;18312.22;5032388;28;20217;-61
2022/11/01 03:03:21;;;;;;;27.77;23.43;;;11.80;99.90;;;-141.84;95.20;18360.97;5021214;28;20280;-60
2022/11/01 03:06:06;;;;;;;33.35;25.65;;;11.80;99.90;;;-141.84;94.77;18350.81;5012560;28;20229;-60
2022/11/01 03:08:40;;;;;;;27.33;23.07;;;11.80;99.90;;;-141.84;93.89;18371.13;5032177;28;20579;-59
2022/11/01 03:11:12;;;;;;;29.33;22.47;;;11.90;99.90;;;-141.84;92.57;18377.22;5032283;28;20237;-61
2022/11/01 03:13:59;;;;;;;29.20;23.93;;;11.90;99.90;;;-141.84;91.48;18389.41;5032531;28;20488;-60
2022/11/01 03:16:36;;;;;;;30.23;22.83;;;11.90;99.90;;;-141.84;90.96;18407.69;5032489;28;20193;-60
2022/11/01 03:19:21;;;;;;;26.33;20.88;;;11.90;99.90;;;-141.84;90.54;18415.81;5032447;28;20657;-60
2022/11/01 03:22:00;;;;;;;29.23;22.35;;;11.90;99.90;;;-141.84;90.66;18440.22;5032462;28;20692;-61
2022/11/01 03:24:33;;;;;;;25.67;21.63;;;11.90;99.90;;;-141.84;90.85;18419.88;5032157;28;20587;-60
2022/11/01 03:27:08;;;;;;;25.47;21.67;;;11.80;99.90;;;-141.84;91.21;18425.97;5031920;28;20230;-59
2022/11/01 03:29:38;;;;;;;25.40;20.97;;;11.80;99.90;;;-141.84;91.28;18395.50;5032168;28;20792;-60
2022/11/01 03:32:09;;;;;;;25.17;21.27;;;11.80;99.90;;;-141.84;91.14;18403.63;5032093;28;20234;-59
2022/11/01 03:34:41;;;;;;;23.97;21.37;;;11.80;99.90;;;-141.84;90.85;18432.09;5031883;28;20194;-60
2022/11/01 03:37:12;;;;;;;23.57;20.23;;;11.80;99.90;;;-141.84;90.82;18411.75;5024265;28;20245;-61
2022/11/01 03:39:46;;;;;;;24.52;20.52;;;11.80;99.90;;;-141.84;91.03;18391.44;5014353;28;20645;-60
2022/11/01 03:42:18;;;;;;;25.73;22.20;;;11.80;99.90;;;-141.84;90.66;18411.75;5031442;28;20230;-61
2022/11/01 03:44:53;;;;;;;28.53;22.27;;;11.80;99.90;;;-141.84;90.30;18405.66;5031604;28;20725;-60
2022/11/01 03:47:22;;;;;;;25.77;20.95;;;11.80;99.90;;;-141.84;90.15;18417.84;5031699;28;20269;-60
2022/11/01 03:50:14;;;;;;;23.75;20.50;;;11.80;99.90;;;-141.84;90.00;18423.94;5031764;28;20233;-60
2022/11/01 03:52:42;;;;;;;26.43;19.80;;;11.80;99.90;;;-141.84;90.37;18456.47;5031385;28;20225;-59
2022/11/01 03:55:17;;;;;;;27.88;21.20;;;11.80;99.90;;;-141.84;90.25;18423.94;5032267;28;20202;-61
2022/11/01 03:57:47;;;;;;;27.90;20.70;;;11.80;99.90;;;-141.84;90.35;18423.94;5011683;28;20202;-59
2022/11/01 04:00:18;;;;;;;23.07;19.77;;;11.80;99.90;;;-141.84;90.32;18486.94;4994068;28;20250;-60
2022/11/01 04:02:46;;;;;;;27.87;20.93;;;11.80;99.90;;;-141.84;90.34;18419.88;4991095;28;20227;-59
2022/11/01 04:05:16;;;;;;;26.37;21.40;;;11.80;99.90;;;-141.84;89.46;18476.78;4991768;28;20722;-60
2022/11/01 04:07:44;;;;;;;22.83;19.23;;;11.90;99.90;;;-141.84;88.65;18456.47;5004578;28;20664;-61
2022/11/01 04:10:14;;;;;;;23.73;19.07;;;11.90;99.90;;;-141.84;88.77;18495.06;5011946;28;20225;-60
2022/11/01 04:12:46;;;;;;;23.00;18.93;;;11.90;99.90;;;-141.84;87.76;18515.38;5011310;28;20285;-60
2022/11/01 04:20:54;;;;;;;22.53;17.87;;;12.00;99.90;;;-141.84;86.95;18501.16;5011662;28;20318;-62
2022/11/01 04:23:22;;;;;;;20.92;18.25;;;12.00;99.90;;;-141.84;86.62;18509.28;5011283;28;20721;-60
2022/11/01 04:25:50;;;;;;;21.23;18.07;;;12.00;99.90;;;-141.84;85.46;18553.97;5011659;28;20222;-60
2022/11/01 04:28:18;;;;;;;20.13;17.77;;;12.00;99.90;;;-141.84;84.99;18517.41;5011782;28;20302;-60
2022/11/01 04:30:46;;;;;;;23.73;17.63;;;12.10;99.90;;;-141.84;84.42;18568.19;5011301;28;20253;-61
2022/11/01 04:33:15;;;;;;;23.07;16.57;;;12.20;99.90;;;-141.84;83.32;18592.59;5010909;28;20273;-60
2022/11/01 04:35:43;;;;;;;21.33;16.92;;;12.20;99.90;;;-141.84;84.09;18572.25;5011058;28;20284;-61
2022/11/01 04:38:13;;;;;;;21.03;16.60;;;12.20;99.90;;;-141.84;84.37;18576.31;4994681;28;20231;-60
2022/11/01 04:40:43;;;;;;;20.37;16.83;;;12.20;99.90;;;-141.84;84.38;18590.56;5002372;28;20235;-61
2022/11/01 04:43:12;;;;;;;19.53;15.17;;;12.20;99.90;;;-141.84;84.46;18590.56;5011034;28;20245;-61
2022/11/01 04:45:40;;;;;;;18.10;16.02;;;12.20;99.90;;;-141.84;84.63;18568.19;5010898;28;20586;-60
2022/11/01 04:48:12;;;;;;;20.98;17.23;;;12.20;99.90;;;-141.84;83.96;18598.69;5010930;28;20226;-62
2022/11/01 04:50:41;;;;;;;19.10;16.35;;;12.20;99.90;;;-141.84;83.79;18612.91;5010966;28;20302;-60
2022/11/01 04:53:11;;;;;;;19.30;16.20;;;12.20;99.90;;;-141.84;83.92;18604.78;5010500;28;20230;-61
2022/11/01 04:55:40;;;;;;;20.53;16.73;;;12.20;99.90;;;-141.84;84.25;18578.38;5000689;28;20231;-60
2022/11/01 04:58:09;;;;;;;22.83;17.00;;;12.30;99.90;;;-141.84;83.28;18598.69;4991618;28;20574;-62
2022/11/01 05:00:38;;;;;;;17.77;15.20;;;12.30;99.90;;;-141.84;83.27;18610.88;4991136;28;20663;-60
2022/11/01 05:03:08;;;;;;;17.50;15.37;;;12.30;99.90;;;-141.84;83.73;18653.53;4991093;28;20242;-60
2022/11/01 05:05:36;;;;;;;20.77;16.20;;;12.20;99.90;;;-141.84;82.72;18635.25;4991058;28;20227;-60
2022/11/01 05:08:07;;;;;;;20.02;15.75;;;12.30;99.90;;;-141.84;82.48;18639.31;5006095;28;20226;-60
2022/11/01 05:10:40;;;;;;;19.10;15.38;;;12.30;99.90;;;-141.84;81.04;18694.16;5010812;28;20184;-60
2022/11/01 05:13:09;;;;;;;16.85;14.63;;;12.40;99.90;;;-141.84;81.95;18667.75;5010552;28;20693;-61
2022/11/01 05:15:38;;;;;;;17.53;14.57;;;12.30;99.90;;;-141.84;82.69;18651.50;5014077;28;20229;-61
2022/11/01 05:18:10;;;;;;;17.88;14.52;;;12.30;99.90;;;-141.84;82.80;18639.31;5014720;28;20226;-59
2022/11/01 05:20:38;;;;;;;16.52;13.52;;;12.40;99.90;;;-141.84;82.33;18651.50;5014727;28;20658;-59
2022/11/01 05:23:06;;;;;;;17.83;13.60;;;12.40;99.90;;;-141.84;81.84;18692.13;5014294;28;20230;-60
2022/11/01 05:25:34;;;;;;;15.15;13.02;;;12.40;99.90;;;-141.84;80.57;18734.81;5014731;28;20202;-60
2022/11/01 05:28:10;;;;;;;16.08;12.52;;;12.50;99.90;;;-141.84;80.43;18718.56;5014523;28;20225;-60
2022/11/01 05:30:38;;;;;;;17.30;13.70;;;12.50;99.90;;;-141.84;79.59;18747.00;5014394;28;20234;-59
2022/11/01 05:33:08;;;;;;;15.68;12.88;;;12.60;99.90;;;-141.84;80.09;18753.09;5014015;28;20230;-60
2022/11/01 05:35:36;;;;;;;19.55;12.85;;;12.60;99.90;;;-141.84;81.05;18744.97;5014454;28;20227;-60
2022/11/01 05:38:05;;;;;;;15.57;12.32;;;12.60;99.90;;;-141.84;80.89;18724.66;5009721;28;20230;-60
2022/11/01 05:40:33;;;;;;;17.85;12.25;;;12.60;99.90;;;-141.84;79.63;18759.19;5013999;28;20706;-59
2022/11/01 05:43:02;;;;;;;13.87;11.43;;;12.60;99.90;;;-141.84;80.55;18765.28;5014664;28;20199;-61
2022/11/01 05:45:32;;;;;;;15.68;11.18;;;12.60;99.90;;;-141.84;79.56;18757.16;5014094;28;20239;-59
2022/11/01 05:48:03;;;;;;;13.48;10.63;;;12.70;99.90;;;-141.84;80.53;18738.88;5014095;28;20273;-60
2022/11/01 05:50:31;;;;;;;15.37;11.13;;;12.70;99.90;;;-141.84;80.74;18712.47;5014221;28;20269;-61
2022/11/01 05:53:06;;;;;;;14.90;11.27;;;12.70;99.90;;;-141.84;81.09;18761.22;5013692;28;20256;-60
2022/11/01 05:55:35;;;;;;;15.60;11.65;;;12.70;99.90;;;-141.84;81.21;18702.28;5013921;28;20194;-61
2022/11/01 05:58:03;;;;;;;13.88;11.68;;;12.70;99.90;;;-141.84;81.48;18681.97;5014489;28;20289;-59
2022/11/01 06:00:34;;;;;;;18.30;11.57;;;12.70;99.90;;;-141.84;81.48;18724.66;5013737;28;20726;-62
2022/11/01 06:03:02;;;;;;;16.80;11.30;;;12.70;99.90;;;-141.84;81.10;18765.28;5014080;28;20223;-60
2022/11/01 06:05:32;;;;;;;14.73;10.65;;;12.70;99.90;;;-141.84;80.88;18759.19;5013712;28;20313;-61
2022/11/01 06:08:02;;;;;;;15.77;11.30;;;12.80;99.90;;;-141.84;81.08;18744.97;5013870;28;20230;-59
2022/11/01 06:10:32;;;;;;;16.45;10.70;;;12.80;99.90;;;-141.84;81.34;18759.19;5013836;28;20199;-61
2022/11/01 06:13:00;;;;;;;15.37;11.20;;;12.80;99.90;;;-141.84;81.15;18783.56;5013726;28;20219;-60
2022/11/01 06:15:29;;;;;;;14.05;9.95;;;12.80;99.90;;;-141.84;81.28;18736.84;5013246;28;20675;-61
2022/11/01 06:18:04;;;;;;;18.33;11.65;;;12.80;99.90;;;-141.84;80.74;18781.53;5013168;28;21059;-60
2022/11/01 06:20:35;;;;;;;15.18;10.50;;;12.90;99.90;;;-141.84;80.62;18793.72;5013419;28;20222;-60
2022/11/01 06:23:10;;;;;;;19.10;11.43;;;12.90;99.90;;;-141.84;79.92;18826.25;5013285;28;20322;-61
2022/11/01 06:25:38;;;;;;;15.03;11.23;;;13.00;99.90;;;-141.84;80.25;18779.50;5012416;28;20260;-61
2022/11/01 06:28:06;;;;;;;14.95;9.85;;;13.00;99.90;;;-141.84;80.52;18759.19;5013330;28;20195;-60
2022/11/01 06:30:34;;;;;;;15.30;10.18;;;13.00;99.90;;;-141.84;80.85;18744.97;5012961;28;20241;-61
2022/11/01 06:33:05;;;;;;;15.77;10.35;;;13.00;99.90;;;-141.84;80.53;18765.28;5013268;28;20269;-60
2022/11/01 06:35:33;;;;;;;13.18;10.63;;;13.10;99.90;;;-141.84;80.33;18785.59;5013184;28;20298;-60
2022/11/01 06:38:02;;;;;;;12.80;10.23;;;13.20;99.90;;;-141.84;79.09;18842.50;4997818;28;20722;-61
2022/11/01 06:40:30;;;;;;;13.05;9.68;;;13.20;99.90;;;-141.84;79.55;18797.78;5002366;28;20198;-62
2022/11/01 06:43:03;;;;;;;16.10;10.93;;;13.20;99.90;;;-141.84;79.50;18799.81;5013423;28;20195;-60
2022/11/01 06:45:33;;;;;;;14.50;11.20;;;13.30;99.90;;;-141.84;78.06;18864.84;5012700;28;20283;-60
2022/11/01 06:48:02;;;;;;;17.80;11.20;;;13.40;99.90;;;-141.84;78.00;18872.97;5003852;28;20230;-60
2022/11/01 06:50:32;;;;;;;18.27;10.32;;;13.40;99.90;;;-141.84;77.50;18889.22;4993328;28;20227;-61
2022/11/01 06:53:01;;;;;;;13.93;9.20;;;13.50;99.90;;;-141.84;76.21;18972.53;4993103;28;20747;-60
2022/11/01 06:55:30;;;;;;;16.20;9.52;;;13.70;99.90;;;-141.84;76.19;18944.09;4993323;28;20202;-62
2022/11/01 06:58:00;;;;;;;16.08;9.68;;;13.70;99.90;;;-141.84;77.00;18938.00;4993802;28;20199;-62
2022/11/01 07:00:30;;;;;;;17.35;10.23;;;13.70;99.90;;;-141.84;77.62;18935.97;4993198;28;20232;-61
2022/11/01 07:03:00;;;;;;;13.23;8.63;;;13.70;99.90;;;-141.84;77.69;18903.44;4993173;28;20768;-60
2022/11/01 07:05:32;;;;;;;15.00;10.75;;;13.70;99.90;;;-141.84;76.58;18964.41;4992650;28;20229;-61
2022/11/01 07:08:07;;;;;;;14.63;10.07;;;13.80;99.90;;;-141.84;76.77;18938.00;5008143;28;20736;-61
2022/11/01 07:10:37;;;;;;;15.20;9.55;;;13.90;99.90;;;-141.84;76.43;18968.47;5012527;28;20183;-59
2022/11/01 07:13:07;;;;;;;17.35;10.02;;;14.00;99.90;;;-141.84;75.62;19009.09;5012747;28;20215;-60
2022/11/01 07:15:35;;;;;;;13.30;9.25;;;14.10;99.90;;;-141.84;75.44;19027.41;5012269;28;20242;-61
2022/11/01 07:18:07;;;;;;;14.75;9.45;;;14.10;99.90;;;-141.84;74.92;19009.09;5012203;28;20668;-61
2022/11/01 07:20:41;;;;;;;12.45;8.38;;;14.30;99.90;;;-141.84;75.36;19033.50;5012135;28;20749;-61
2022/11/01 07:23:13;;;;;;;14.63;8.93;;;14.30;99.90;;;-141.84;74.63;19066.00;5012252;28;20229;-61
2022/11/01 07:25:42;;;;;;;12.68;9.55;;;14.50;99.90;;;-141.84;73.96;19070.06;5012609;28;20286;-60
2022/11/01 07:28:10;;;;;;;13.65;8.63;;;14.60;99.90;;;-141.84;73.96;19074.13;5013210;28;20211;-59
2022/11/01 07:30:39;;;;;;;13.88;8.95;;;14.70;99.90;;;-141.84;73.75;19082.25;5012914;28;20230;-61
2022/11/01 07:33:07;;;;;;;15.18;9.43;;;14.70;99.90;;;-141.84;73.54;19141.19;5012907;28;20297;-60
2022/11/01 07:35:36;;;;;;;11.65;8.70;;;14.80;99.90;;;-141.84;73.45;19139.16;5012987;28;20226;-63
2022/11/01 07:38:05;;;;;;;16.38;9.07;;;14.80;99.90;;;-141.84;72.50;19183.84;5008402;28;20226;-60
2022/11/01 07:40:40;;;;;;;11.77;8.20;;;14.90;99.90;;;-141.84;72.62;19192.00;5012406;28;20233;-61
2022/11/01 07:43:08;;;;;;;11.13;7.95;;;15.10;99.90;;;-141.84;72.59;19214.34;5013519;28;20198;-61
2022/11/01 07:45:37;;;;;;;13.13;8.52;;;15.20;99.90;;;-141.84;72.30;19196.06;4992797;28;20293;-60
2022/11/01 07:48:09;;;;;;;10.13;7.47;;;15.20;99.90;;;-141.84;72.13;19238.72;4991046;28;20799;-59
2022/11/01 07:50:41;;;;;;;8.85;7.82;;;15.40;99.90;;;-141.84;71.97;19212.31;4992223;28;20235;-61
2022/11/01 07:53:11;;;;;;;13.50;8.65;;;15.40;99.90;;;-141.84;71.66;19252.94;4991515;28;20604;-61
2022/11/01 07:55:41;;;;;;;14.63;8.07;;;15.50;99.90;;;-141.84;70.84;19261.06;4992025;28;20238;-60
2022/11/01 07:58:10;;;;;;;13.90;8.63;;;15.60;99.90;;;-141.84;70.53;19267.16;4992569;28;20210;-60
2022/11/01 08:00:39;;;;;;;12.65;8.23;;;15.60;99.90;;;-141.84;69.65;19334.22;4992014;28;20235;-60
2022/11/01 08:03:10;;;;;;;14.93;8.30;;;15.60;99.90;;;-141.84;68.99;19358.63;4991840;28;20487;-61
2022/11/01 08:05:40;;;;;;;12.75;8.05;;;15.60;99.90;;;-141.84;68.37;19366.75;4992126;28;20238;-60
2022/11/01 08:08:09;;;;;;;13.80;8.90;;;15.70;99.90;;;-141.84;69.01;19362.69;5007498;28;20686;-60
2022/11/01 08:10:38;;;;;;;16.23;8.93;;;15.80;99.90;;;-141.84;69.55;19370.81;5011317;28;20225;-58
2022/11/01 08:13:13;;;;;;;14.73;8.45;;;15.70;99.90;;;-141.84;68.35;19423.66;5011502;28;20230;-61
2022/11/01 08:15:41;;;;;;;10.75;7.78;;;15.90;99.90;;;-141.84;68.75;19395.19;5011157;28;20608;-61
2022/11/01 08:18:10;;;;;;;12.50;8.10;;;15.90;99.90;;;-141.84;68.61;19425.69;5011423;28;20618;-61
2022/11/01 08:20:40;;;;;;;16.15;8.45;;;15.90;99.90;;;-141.84;69.33;19399.25;5011054;28;20218;-60
2022/11/01 08:23:09;;;;;;;11.52;7.93;;;15.90;99.90;;;-141.84;69.46;19393.16;5010748;28;20222;-62
2022/11/01 08:25:37;;;;;;;15.43;8.15;;;15.90;99.90;;;-141.84;69.48;19411.44;5011028;28;20206;-60
2022/11/01 08:28:08;;;;;;;14.32;7.75;;;15.80;99.90;;;-141.84;69.33;19425.69;5011948;28;20348;-60
2022/11/01 08:30:38;;;;;;;13.60;8.30;;;15.90;99.90;;;-141.84;68.89;19431.78;5011367;28;20624;-60
2022/11/01 08:33:07;;;;;;;13.60;7.70;;;16.00;99.90;;;-141.84;69.49;19431.78;5011283;28;20241;-62
2022/11/01 08:35:36;;;;;;;11.23;7.72;;;15.90;99.90;;;-141.84;70.28;19403.31;5010911;28;20261;-61
2022/11/01 08:38:06;;;;;;;11.43;8.38;;;15.80;99.90;;;-141.84;70.47;19403.31;5006234;28;20238;-61
2022/11/01 08:40:34;;;;;;;12.82;7.88;;;15.80;99.90;;;-141.84;70.10;19433.81;5001525;28;20215;-60
2022/11/01 08:43:02;;;;;;;14.85;8.40;;;15.80;99.90;;;-141.84;70.43;19358.63;4991031;28;20211;-63
2022/11/01 08:45:30;;;;;;;12.65;7.55;;;15.70;99.90;;;-141.84;69.81;19411.44;4990938;28;20246;-60
2022/11/01 08:48:01;;;;;;;13.60;8.48;;;15.90;99.90;;;-141.84;69.94;19441.94;4990991;28;20253;-60
2022/11/01 08:50:29;;;;;;;11.52;7.75;;;15.90;99.90;;;-141.84;69.74;19417.56;4990849;28;20666;-61
2022/11/01 08:52:57;;;;;;;12.70;8.98;;;15.90;99.90;;;-141.84;69.08;19450.06;4991036;28;20286;-63
2022/11/01 08:55:27;;;;;;;12.43;8.10;;;16.00;99.90;;;-141.84;68.71;19496.81;4991412;28;20209;-60
2022/11/01 08:57:59;;;;;;;13.05;7.53;;;16.10;99.90;;;-141.84;68.64;19533.38;4991226;28;20231;-60
2022/11/01 09:00:28;;;;;;;12.35;7.15;;;16.20;99.90;;;-141.84;68.48;19515.09;4991218;28;20748;-62
2022/11/01 09:02:56;;;;;;;12.73;7.43;;;16.30;99.90;;;-141.84;68.35;19517.13;4990921;28;20242;-61
2022/11/01 09:05:24;;;;;;;11.63;7.70;;;16.40;99.90;;;-141.84;68.71;19502.91;4991147;28;20227;-60
2022/11/01 09:07:57;;;;;;;10.35;7.35;;;16.40;99.90;;;-141.84;68.13;19545.56;5004065;28;20222;-60
2022/11/01 09:10:29;;;;;;;10.82;7.43;;;16.50;99.90;;;-141.84;67.80;19535.41;5010318;28;20191;-60
2022/11/01 09:12:58;;;;;;;13.60;7.95;;;16.60;99.90;;;-141.84;67.51;19596.38;5011128;28;20428;-62
2022/11/01 09:15:27;;;;;;;13.45;7.65;;;16.70;99.90;;;-141.84;67.40;19602.47;5010512;28;20269;-61
2022/11/01 09:17:55;;;;;;;13.98;7.85;;;16.80;99.90;;;-141.84;66.27;19651.25;5009965;28;20230;-59
2022/11/01 09:20:25;;;;;;;12.65;7.97;;;17.00;99.90;;;-141.84;66.34;19620.78;5010653;28;20237;-60
2022/11/01 09:22:53;;;;;;;9.68;6.90;;;16.90;99.90;;;-141.84;66.60;19602.47;5010674;28;20222;-60
2022/11/01 09:25:21;;;;;;;12.32;7.75;;;16.90;99.90;;;-141.84;67.33;19594.34;5010308;28;20724;-61
2022/11/01 09:27:50;;;;;;;11.23;7.60;;;16.90;99.90;;;-141.84;67.61;19620.78;5011031;28;20256;-60
2022/11/01 09:30:19;;;;;;;13.05;7.88;;;16.90;99.90;;;-141.84;67.63;19618.75;5010465;28;20230;-60
2022/11/01 09:32:48;;;;;;;8.63;6.85;;;16.90;99.90;;;-141.84;68.16;19610.59;5010334;28;20242;-59
2022/11/01 09:35:17;;;;;;;12.73;7.75;;;16.80;99.90;;;-141.84;67.97;19612.63;5010236;28;20238;-60
2022/11/01 09:37:45;;;;;;;9.60;8.40;;;16.90;99.90;;;-141.84;67.92;19596.38;5009902;28;20226;-61
2022/11/01 09:40:15;;;;;;;7.78;6.82;;;16.90;99.90;;;-141.84;68.01;19622.81;5008806;28;20195;-60
2022/11/01 09:42:45;;;;;;;9.18;7.43;;;16.90;99.90;;;-141.84;67.74;19630.94;5010144;28;20273;-61
2022/11/01 09:45:20;;;;;;;9.82;7.25;;;17.00;99.90;;;-141.84;67.72;19639.06;5010776;28;20242;-60
2022/11/01 09:47:53;;;;;;;11.82;7.28;;;17.10;99.90;;;-141.84;67.06;19706.13;5010695;28;20218;-59
2022/11/01 09:50:28;;;;;;;14.98;7.72;;;17.10;99.90;;;-141.84;67.24;19726.44;5010924;28;20229;-59
2022/11/01 09:52:59;;;;;;;11.05;7.80;;;17.20;99.90;;;-141.84;68.00;19667.50;5010527;28;20388;-61
2022/11/01 09:55:41;;;;;;;16.15;8.18;;;17.30;99.90;;;-141.84;67.91;19681.75;5010623;28;20217;-61
2022/11/01 09:58:27;;;;;;;15.13;8.68;;;17.20;99.90;;;-141.84;68.67;19683.78;5010962;28;20190;-59
2022/11/01 10:01:14;;;;;;;8.90;7.15;;;17.30;99.90;;;-141.84;68.14;19683.78;5012724;28;20229;-60
2022/11/01 10:04:09;;;;;;;9.05;7.32;;;17.30;99.90;;;-141.84;68.60;19671.56;5031947;28;20344;-59
2022/11/01 10:06:47;;;;;;;11.75;7.68;;;17.20;99.90;;;-141.84;69.64;19647.19;5033193;28;20234;-59
2022/11/01 10:09:33;;;;;;;11.27;8.15;;;17.20;99.90;;;-141.84;69.85;19622.81;5033355;28;20226;-60
2022/11/01 10:12:35;;;;;;;8.98;7.10;;;17.10;99.90;;;-141.84;71.11;19582.16;5033502;28;20799;-58
2022/11/01 10:15:27;;;;;;;11.40;7.22;;;17.10;99.90;;;-141.84;71.57;19582.16;5033407;28;20648;-61
2022/11/01 10:18:09;;;;;;;9.88;7.80;;;17.10;99.90;;;-141.84;70.86;19602.47;5032026;28;20721;-59
2022/11/01 10:20:40;;;;;;;13.13;7.70;;;17.30;99.90;;;-141.84;69.55;19677.66;5032757;28;20230;-60
2022/11/01 10:23:15;;;;;;;9.27;7.22;;;17.50;99.90;;;-141.84;68.59;19722.38;5031272;28;20226;-59